Date,TemperatureHighF,TemperatureAvgF,TemperatureLowF,DewpointHighF,DewpointAvgF,DewpointLowF,HumidityHigh,HumidityAvg,HumidityLow,PressureMaxIn,PressureMinIn,WindSpeedMaxMPH,WindSpeedAvgMPH,GustSpeedMaxMPH,PrecipitationSumIn
2013-1-1,54,48,44,43,38,33,86,68,47,30.28,30.21,12,2,14,0.00
2013-1-2,57,48,40,40,37,33,87,67,42,30.25,30.14,6,1,0,0.00
2013-1-3,57,48,40,43,40,36,92,75,57,30.27,30.17,7,0,0,0.00
2013-1-4,59,51,45,42,40,37,82,67,44,30.30,30.18,6,0,0,0.00
2013-1-5,54,49,44,49,45,40,95,87,77,30.27,30.07,10,0,0,0.27
2013-1-6,54,49,45,48,44,43,93,85,69,30.20,30.06,11,1,14,0.11
2013-1-7,59,51,43,50,46,42,96,86,71,30.28,30.16,5,0,0,0.00
2013-1-8,62,53,47,50,47,45,92,80,61,30.25,30.13,6,0,0,0.01
2013-1-9,55,50,46,51,45,38,92,82,70,30.16,30.01,14,2,17,0.00
2013-1-10,53,48,44,38,36,31,75,63,48,30.21,30.09,10,1,0,0.00
2013-1-11,54,47,42,43,37,31,83,69,51,30.27,30.13,12,1,14,0.00
2013-1-12,52,46,40,40,33,23,86,63,32,30.27,30.15,7,1,0,0.00
2013-1-13,53,45,39,37,28,17,71,52,31,30.28,30.18,9,0,12,0.00
2013-1-14,53,46,40,36,23,16,72,42,27,30.41,30.24,13,2,16,0.00
2013-1-15,56,47,40,39,34,27,83,62,34,30.49,30.40,8,1,12,0.00
2013-1-16,60,50,42,41,38,36,84,65,42,30.44,30.26,5,1,0,0.00
2013-1-17,65,52,41,43,37,32,83,57,31,30.27,30.14,7,1,0,0.00
2013-1-18,67,54,44,43,38,33,83,57,30,30.23,30.13,9,0,0,0.00
2013-1-19,66,54,42,43,38,32,83,57,33,30.25,30.15,7,0,0,0.00
2013-1-20,66,53,43,44,37,31,84,57,28,30.23,30.12,7,0,0,0.00
2013-1-21,66,54,43,42,39,36,79,60,38,30.18,30.07,6,1,0,0.00
2013-1-22,64,54,44,45,42,39,86,65,44,30.12,30.00,5,0,0,0.00
2013-1-23,56,54,52,51,47,44,92,80,68,30.09,29.96,5,0,0,0.11
2013-1-24,62,55,52,53,51,49,92,85,72,30.20,30.07,5,0,0,0.00
2013-1-25,67,58,53,56,53,50,92,82,66,30.20,30.04,7,0,0,0.00
2013-1-26,58,53,49,51,46,42,94,78,60,30.10,30.00,16,3,19,0.00
2013-1-27,58,51,46,44,40,37,79,67,47,30.19,30.08,10,1,0,0.00
2013-1-28,60,52,46,46,42,36,84,70,51,30.31,30.17,10,1,12,0.00
2013-1-29,60,52,46,48,44,41,86,76,55,30.37,30.27,10,1,0,0.00
2013-1-30,68,55,46,50,46,42,90,72,42,30.35,30.26,6,1,0,0.00
2013-1-31,66,56,47,49,46,43,89,72,51,30.29,30.17,7,1,0,0.00